createdAt,value
2022-09-22T00:00:18.164Z,79.29
2022-09-22T00:03:43.316Z,79.37
2022-09-22T00:06:48.298Z,79.43
2022-09-22T00:09:51.184Z,79.40
2022-09-22T00:12:55.185Z,79.44
2022-09-22T00:15:58.372Z,79.52
2022-09-22T00:19:01.389Z,79.53
2022-09-22T00:22:05.922Z,79.55
2022-09-22T00:25:09.526Z,79.60
2022-09-22T00:28:13.189Z,79.68
2022-09-22T00:31:20.674Z,79.74
2022-09-22T00:34:26.444Z,79.77
2022-09-22T00:37:32.340Z,79.81
2022-09-22T00:40:36.299Z,79.80
2022-09-22T00:43:39.511Z,79.83
2022-09-22T00:46:44.889Z,79.93
2022-09-22T00:49:57.200Z,79.97
2022-09-22T00:53:06.038Z,79.94
2022-09-22T00:56:14.848Z,79.99
2022-09-22T00:59:20.346Z,80.00
2022-09-22T01:02:24.241Z,80.00
2022-09-22T01:05:29.714Z,80.02
2022-09-22T01:08:34.331Z,80.05
2022-09-22T01:11:39.668Z,80.11
2022-09-22T01:15:03.889Z,80.12
2022-09-22T01:18:20.790Z,80.15
2022-09-22T01:21:47.863Z,80.10
2022-09-22T01:25:07.493Z,80.12
2022-09-22T01:28:47.613Z,80.15
2022-09-22T01:31:59.441Z,80.18
2022-09-22T01:35:24.386Z,80.20
2022-09-22T01:38:50.504Z,80.26
2022-09-22T01:42:04.217Z,80.24
2022-09-22T01:45:11.095Z,80.25
2022-09-22T01:48:25.872Z,80.31
2022-09-22T01:51:37.653Z,80.37
2022-09-22T01:54:45.860Z,80.41
2022-09-22T01:57:51.028Z,80.42
2022-09-22T02:01:00.561Z,80.51
2022-09-22T02:04:11.461Z,80.56
2022-09-22T02:07:31.119Z,80.62
2022-09-22T02:10:45.768Z,80.58
2022-09-22T02:13:48.790Z,80.54
2022-09-22T02:16:53.507Z,80.47
2022-09-22T02:19:56.411Z,80.43
2022-09-22T02:22:59.565Z,80.43
2022-09-22T02:26:04.452Z,80.38
2022-09-22T02:29:11.094Z,80.33
2022-09-22T02:32:17.521Z,80.30
2022-09-22T02:35:21.789Z,80.32
2022-09-22T02:38:34.579Z,80.28
2022-09-22T02:42:11.729Z,80.23
2022-09-22T02:45:17.265Z,80.14
2022-09-22T02:48:24.603Z,80.08
2022-09-22T02:51:29.615Z,80.06
2022-09-22T02:54:32.846Z,80.10
2022-09-22T02:57:36.231Z,80.08
2022-09-22T03:00:39.089Z,80.02
2022-09-22T03:03:42.311Z,79.98
2022-09-22T03:06:45.174Z,79.96
2022-09-22T03:09:48.098Z,79.96
2022-09-22T03:13:14.994Z,79.94
2022-09-22T03:16:14.019Z,79.90
2022-09-22T03:19:16.886Z,79.90
2022-09-22T03:22:19.766Z,79.84
2022-09-22T03:25:22.638Z,79.78
2022-09-22T03:28:25.530Z,79.77
2022-09-22T03:31:28.466Z,79.67
2022-09-22T03:34:31.362Z,79.59
2022-09-22T03:37:35.017Z,79.52
2022-09-22T03:40:38.015Z,79.49
2022-09-22T03:43:41.122Z,79.55
2022-09-22T03:46:44.036Z,79.54
2022-09-22T03:49:46.981Z,79.63
2022-09-22T03:52:49.916Z,79.64
2022-09-22T03:55:52.781Z,79.68
2022-09-22T03:58:55.645Z,79.69
2022-09-22T04:01:58.843Z,79.60
2022-09-22T04:05:01.837Z,79.55
2022-09-22T04:08:04.759Z,79.48
2022-09-22T04:11:08.173Z,79.50
2022-09-22T04:14:11.264Z,79.49
2022-09-22T04:17:14.478Z,79.50
2022-09-22T04:20:17.414Z,79.58
2022-09-22T04:23:20.273Z,79.64
2022-09-22T04:26:23.549Z,79.61
2022-09-22T04:29:26.475Z,79.61
2022-09-22T04:32:29.576Z,79.58
2022-09-22T04:35:33.254Z,79.53
2022-09-22T04:38:36.194Z,79.55
2022-09-22T04:41:39.087Z,79.61
2022-09-22T04:44:41.949Z,79.65
2022-09-22T04:47:49.942Z,79.67
2022-09-22T04:50:53.070Z,79.77
2022-09-22T04:53:55.947Z,79.79
2022-09-22T04:56:59.405Z,79.81
2022-09-22T05:00:02.752Z,79.85
2022-09-22T05:03:10.590Z,79.92
2022-09-22T05:06:13.704Z,79.94
2022-09-22T05:09:16.635Z,79.94
2022-09-22T05:12:20.492Z,79.98
2022-09-22T05:15:23.497Z,80.03
2022-09-22T05:18:26.366Z,80.02
2022-09-22T05:21:29.656Z,80.06
2022-09-22T05:24:32.629Z,80.09
2022-09-22T05:27:35.976Z,80.16
2022-09-22T05:30:38.959Z,80.17
2022-09-22T05:33:42.111Z,80.06
2022-09-22T05:36:45.051Z,80.06
2022-09-22T05:39:47.885Z,80.17
2022-09-22T05:42:52.372Z,80.13
2022-09-22T05:45:55.753Z,80.12
2022-09-22T05:48:59.226Z,80.07
2022-09-22T05:52:02.547Z,80.04
2022-09-22T05:55:06.770Z,79.99
2022-09-22T05:58:14.194Z,79.97
2022-09-22T06:01:17.549Z,79.97
2022-09-22T06:04:20.528Z,80.10
2022-09-22T06:07:26.422Z,80.26
2022-09-22T06:10:31.235Z,80.25
2022-09-22T06:13:34.265Z,80.20
2022-09-22T06:16:37.124Z,80.23
2022-09-22T06:19:41.141Z,80.28
2022-09-22T06:22:45.015Z,80.22
2022-09-22T06:25:48.152Z,80.18
2022-09-22T06:28:51.375Z,80.09
2022-09-22T06:31:54.329Z,80.08
2022-09-22T06:35:02.523Z,80.10
2022-09-22T06:38:07.232Z,80.09
2022-09-22T06:41:10.117Z,80.16
2022-09-22T06:44:14.398Z,80.12
2022-09-22T06:47:17.378Z,80.06
2022-09-22T06:50:20.237Z,80.04
2022-09-22T06:53:27.038Z,79.99
2022-09-22T06:56:37.084Z,79.97
2022-09-22T06:59:40.797Z,79.95
2022-09-22T07:02:43.791Z,79.92
2022-09-22T07:06:03.725Z,80.01
2022-09-22T07:09:07.544Z,79.99
2022-09-22T07:12:10.467Z,80.02
2022-09-22T07:15:13.571Z,79.88
2022-09-22T07:18:17.040Z,79.75
2022-09-22T07:21:24.072Z,79.76
2022-09-22T07:24:27.911Z,79.77
2022-09-22T07:27:30.701Z,79.70
2022-09-22T07:30:36.383Z,79.78
2022-09-22T07:33:41.852Z,79.73
2022-09-22T07:36:45.286Z,79.66
2022-09-22T07:39:48.402Z,79.74
2022-09-22T07:42:51.366Z,79.67
2022-09-22T07:45:57.275Z,79.62
2022-09-22T07:49:00.311Z,79.51
2022-09-22T07:52:03.730Z,79.57
2022-09-22T07:55:07.098Z,79.45
2022-09-22T07:58:13.970Z,79.59
2022-09-22T08:01:21.794Z,79.49
2022-09-22T08:04:26.857Z,79.22
2022-09-22T08:07:32.943Z,79.10
2022-09-22T08:10:36.183Z,79.13
2022-09-22T08:13:44.600Z,79.13
2022-09-22T08:16:49.436Z,79.25
2022-09-22T08:19:53.164Z,79.25
2022-09-22T08:23:03.192Z,79.06
2022-09-22T08:26:08.994Z,78.72
2022-09-22T08:29:12.209Z,78.87
2022-09-22T08:32:18.455Z,79.05
2022-09-22T08:35:21.687Z,78.90
2022-09-22T08:38:25.792Z,78.86
2022-09-22T08:41:38.343Z,78.71
2022-09-22T08:44:49.303Z,78.55
2022-09-22T08:48:20.984Z,78.32
2022-09-22T08:51:49.051Z,77.82
2022-09-22T08:54:52.231Z,77.95
2022-09-22T08:58:07.447Z,78.11
2022-09-22T09:01:23.761Z,77.78
2022-09-22T09:04:57.995Z,78.04
2022-09-22T09:08:21.729Z,77.95
2022-09-22T09:11:44.761Z,77.53
2022-09-22T09:15:05.644Z,76.91
2022-09-22T09:18:22.874Z,76.37
2022-09-22T09:21:26.887Z,75.79
2022-09-22T09:28:04.755Z,74.48
2022-09-22T09:31:30.421Z,75.02
2022-09-22T09:34:33.597Z,74.85
2022-09-22T09:46:39.945Z,73.66
2022-09-22T09:49:44.038Z,73.38
2022-09-22T09:52:47.520Z,73.21
2022-09-22T09:55:50.982Z,72.42
2022-09-22T09:59:19.395Z,72.25
2022-09-22T10:02:28.022Z,71.79
2022-09-22T10:05:33.582Z,71.82
2022-09-22T10:08:45.869Z,71.81
2022-09-22T10:11:58.280Z,71.60
2022-09-22T10:15:02.052Z,72.20
2022-09-22T10:18:40.270Z,72.39
2022-09-22T10:21:43.628Z,71.83
2022-09-22T10:24:58.475Z,72.57
2022-09-22T10:28:10.007Z,72.00
2022-09-22T10:31:22.063Z,71.49
2022-09-22T10:34:37.678Z,71.26
2022-09-22T10:37:40.795Z,71.19
2022-09-22T10:40:48.482Z,71.24
2022-09-22T10:44:03.112Z,71.60
2022-09-22T10:48:08.743Z,70.49
2022-09-22T10:51:41.853Z,70.84
2022-09-22T10:55:08.812Z,71.05
2022-09-22T10:58:51.618Z,70.88
2022-09-22T11:02:32.080Z,70.19
2022-09-22T11:06:08.376Z,70.60
2022-09-22T11:09:53.775Z,70.16
2022-09-22T11:13:20.132Z,70.05
2022-09-22T11:16:44.850Z,70.42
2022-09-22T11:20:24.489Z,70.33
2022-09-22T11:23:46.281Z,70.25
2022-09-22T11:26:59.118Z,71.07
2022-09-22T11:30:11.590Z,71.03
2022-09-22T11:33:36.746Z,71.26
2022-09-22T11:36:58.228Z,71.63
2022-09-22T11:40:34.149Z,71.89
2022-09-22T11:43:58.505Z,72.44
2022-09-22T11:47:15.310Z,72.81
2022-09-22T11:50:30.486Z,72.04
2022-09-22T11:53:39.066Z,72.07
2022-09-22T11:56:48.534Z,72.08
2022-09-22T11:59:58.546Z,71.33
2022-09-22T12:03:18.246Z,71.59
2022-09-22T12:06:30.730Z,72.17
2022-09-22T12:09:43.981Z,71.96
2022-09-22T12:12:48.745Z,71.88
2022-09-22T12:16:12.805Z,72.03
2022-09-22T12:20:12.705Z,72.10
2022-09-22T12:23:30.462Z,71.79
2022-09-22T12:26:37.038Z,71.63
2022-09-22T12:29:40.226Z,71.69
2022-09-22T12:32:51.027Z,71.80
2022-09-22T12:35:55.737Z,72.30
2022-09-22T12:39:11.971Z,72.78
2022-09-22T12:42:35.764Z,72.98
2022-09-22T12:45:42.648Z,73.73
2022-09-22T12:48:46.800Z,74.15
2022-09-22T12:51:52.169Z,74.62
2022-09-22T12:55:28.481Z,75.00
2022-09-22T12:58:31.371Z,75.02
2022-09-22T13:01:35.907Z,75.33
2022-09-22T13:04:40.858Z,74.99
2022-09-22T13:07:44.513Z,74.91
2022-09-22T13:10:56.274Z,74.68
2022-09-22T13:13:59.388Z,74.53
2022-09-22T13:17:37.334Z,74.57
2022-09-22T13:20:40.246Z,74.03
2022-09-22T13:23:52.758Z,73.23
2022-09-22T13:27:04.783Z,73.26
2022-09-22T13:30:15.546Z,72.92
2022-09-22T13:33:24.661Z,72.51
2022-09-22T13:36:28.881Z,72.52
2022-09-22T13:39:35.547Z,72.42
2022-09-22T13:42:43.431Z,72.85
2022-09-22T13:45:46.866Z,73.09
2022-09-22T13:48:52.245Z,72.86
2022-09-22T13:52:03.098Z,72.49
2022-09-22T13:55:15.005Z,72.84
2022-09-22T13:58:42.873Z,73.31
2022-09-22T14:01:49.139Z,73.28
2022-09-22T14:04:56.687Z,73.12
2022-09-22T14:08:20.303Z,72.08
2022-09-22T14:11:27.465Z,71.65
2022-09-22T14:14:30.984Z,71.53
2022-09-22T14:17:33.984Z,71.35
2022-09-22T14:20:41.835Z,70.78
2022-09-22T14:23:50.175Z,70.71
2022-09-22T14:26:58.954Z,70.34
2022-09-22T14:30:05.299Z,70.24
2022-09-22T14:33:18.340Z,70.28
2022-09-22T14:36:25.351Z,70.87
2022-09-22T14:39:34.192Z,70.87
2022-09-22T14:42:37.285Z,70.75
2022-09-22T14:45:57.113Z,71.09
2022-09-22T14:49:39.515Z,71.66
2022-09-22T14:52:52.526Z,72.08
2022-09-22T14:56:04.472Z,71.86
2022-09-22T14:59:27.517Z,71.97
2022-09-22T15:02:33.366Z,72.28
2022-09-22T15:05:37.580Z,72.87
2022-09-22T15:08:43.090Z,73.38
2022-09-22T15:12:00.394Z,73.80
2022-09-22T15:15:26.012Z,74.11
2022-09-22T15:18:31.095Z,74.20
2022-09-22T15:21:38.291Z,74.63
2022-09-22T15:24:41.158Z,74.88
2022-09-22T15:27:44.484Z,75.08
2022-09-22T15:30:48.799Z,75.43
2022-09-22T15:34:03.077Z,75.84
2022-09-22T15:37:06.103Z,76.18
2022-09-22T15:40:21.248Z,76.21
2022-09-22T15:43:31.347Z,76.17
2022-09-22T15:46:37.834Z,76.29
2022-09-22T15:49:44.109Z,76.43
2022-09-22T15:52:47.158Z,76.55
2022-09-22T15:55:54.529Z,76.65
2022-09-22T15:59:01.077Z,76.87
2022-09-22T16:02:22.189Z,76.93
2022-09-22T16:05:25.959Z,76.95
2022-09-22T16:08:42.350Z,77.01
2022-09-22T16:11:45.458Z,77.13
2022-09-22T16:14:49.943Z,77.21
2022-09-22T16:17:52.837Z,77.28
2022-09-22T16:21:20.053Z,77.35
2022-09-22T16:24:23.058Z,77.45
2022-09-22T16:27:29.530Z,77.56
2022-09-22T16:30:32.380Z,77.58
2022-09-22T16:33:35.569Z,77.65
2022-09-22T16:36:39.939Z,77.70
2022-09-22T16:39:42.862Z,77.72
2022-09-22T16:42:46.229Z,77.73
2022-09-22T16:46:07.419Z,77.64
2022-09-22T16:49:12.970Z,77.50
2022-09-22T16:52:15.804Z,77.41
2022-09-22T16:55:18.959Z,77.42
2022-09-22T16:58:21.991Z,77.42
2022-09-22T17:01:24.961Z,77.42
2022-09-22T17:04:28.436Z,77.44
2022-09-22T17:07:31.443Z,77.60
2022-09-22T17:10:35.815Z,77.77
2022-09-22T17:13:43.614Z,77.78
2022-09-22T17:16:52.131Z,77.75
2022-09-22T17:19:55.759Z,77.71
2022-09-22T17:22:58.738Z,77.70
2022-09-22T17:26:03.193Z,77.72
2022-09-22T17:29:06.745Z,77.73
2022-09-22T17:32:09.714Z,77.76
2022-09-22T17:35:12.660Z,77.82
2022-09-22T17:38:17.311Z,77.88
2022-09-22T17:41:26.609Z,77.95
2022-09-22T17:44:34.369Z,78.00
2022-09-22T17:47:56.084Z,77.90
2022-09-22T17:51:17.561Z,77.82
2022-09-22T17:54:55.236Z,77.61
2022-09-22T17:57:58.554Z,77.41
2022-09-22T18:01:01.746Z,77.34
2022-09-22T18:04:05.432Z,77.31
2022-09-22T18:07:15.608Z,77.28
2022-09-22T18:10:19.798Z,77.25
2022-09-22T18:13:22.833Z,77.16
2022-09-22T18:16:30.401Z,77.12
2022-09-22T18:19:35.152Z,77.09
2022-09-22T18:22:38.659Z,77.08
2022-09-22T18:25:41.771Z,77.09
2022-09-22T18:28:44.715Z,77.06
2022-09-22T18:31:53.160Z,77.06
2022-09-22T18:34:56.580Z,76.99
2022-09-22T18:37:59.918Z,76.89
2022-09-22T18:41:03.247Z,76.75
2022-09-22T18:44:06.555Z,76.72
2022-09-22T18:47:18.634Z,76.64
2022-09-22T18:50:21.685Z,76.55
2022-09-22T18:53:24.927Z,76.52
2022-09-22T18:56:27.959Z,76.38
2022-09-22T18:59:40.440Z,76.39
2022-09-22T19:02:43.296Z,76.53
2022-09-22T19:05:46.437Z,76.55
2022-09-22T19:08:49.373Z,76.60
2022-09-22T19:11:54.349Z,76.64
2022-09-22T19:14:57.587Z,76.76
2022-09-22T19:18:00.488Z,76.75
2022-09-22T19:21:06.066Z,76.72
2022-09-22T19:24:09.747Z,76.60
2022-09-22T19:27:15.713Z,76.46
2022-09-22T19:30:22.822Z,76.39
2022-09-22T19:33:27.951Z,76.40
2022-09-22T19:36:31.563Z,76.38
2022-09-22T19:39:36.011Z,76.42
2022-09-22T19:42:40.454Z,76.39
2022-09-22T19:45:43.510Z,76.42
2022-09-22T19:48:46.646Z,76.48
2022-09-22T19:51:49.582Z,76.51
2022-09-22T19:54:52.703Z,76.55
2022-09-22T19:57:55.708Z,76.61
2022-09-22T20:00:58.591Z,76.65
2022-09-22T20:04:02.465Z,76.68
2022-09-22T20:07:08.491Z,76.76
2022-09-22T20:10:13.276Z,76.99
2022-09-22T20:13:34.871Z,77.17
2022-09-22T20:16:37.843Z,77.38
2022-09-22T20:19:42.147Z,77.50
2022-09-22T20:22:47.343Z,77.57
2022-09-22T20:25:51.345Z,77.55
2022-09-22T20:28:56.471Z,77.66
2022-09-22T20:32:00.150Z,77.67
2022-09-22T20:35:07.390Z,77.64
2022-09-22T20:38:11.778Z,77.60
2022-09-22T20:41:24.844Z,77.56
2022-09-22T20:44:28.626Z,77.60
2022-09-22T20:47:33.250Z,77.67
2022-09-22T20:50:36.435Z,77.73
2022-09-22T20:53:40.211Z,77.78
2022-09-22T20:56:44.201Z,77.92
2022-09-22T20:59:47.704Z,78.00
2022-09-22T21:02:51.255Z,78.04
2022-09-22T21:06:05.813Z,78.12
2022-09-22T21:09:28.746Z,78.25
2022-09-22T21:12:33.191Z,78.27
2022-09-22T21:15:38.948Z,78.32
2022-09-22T21:18:42.019Z,78.35
2022-09-22T21:21:45.253Z,78.23
2022-09-22T21:24:48.868Z,78.21
2022-09-22T21:27:51.702Z,78.26
2022-09-22T21:31:05.703Z,78.36
2022-09-22T21:34:09.682Z,78.40
2022-09-22T21:37:15.237Z,78.34
2022-09-22T21:40:25.445Z,78.27
2022-09-22T21:43:29.786Z,78.22
2022-09-22T21:46:44.400Z,78.10
2022-09-22T21:49:47.455Z,77.99
2022-09-22T21:52:50.340Z,77.93
2022-09-22T21:55:57.284Z,77.76
2022-09-22T21:59:00.566Z,77.63
2022-09-22T22:02:03.495Z,77.52
2022-09-22T22:05:06.581Z,77.46
2022-09-22T22:08:09.841Z,77.42
2022-09-22T22:11:14.424Z,77.40
2022-09-22T22:14:22.369Z,77.34
2022-09-22T22:17:25.281Z,77.32
2022-09-22T22:20:31.063Z,77.23
2022-09-22T22:23:37.263Z,77.11
2022-09-22T22:26:40.115Z,77.03
2022-09-22T22:29:42.973Z,77.10
2022-09-22T22:32:46.394Z,77.28
2022-09-22T22:35:54.036Z,77.42
2022-09-22T22:38:56.866Z,77.49
2022-09-22T22:41:59.761Z,77.59
2022-09-22T22:45:02.597Z,77.69
2022-09-22T22:48:06.340Z,77.78
2022-09-22T22:51:12.745Z,77.94
2022-09-22T22:54:15.681Z,78.09
2022-09-22T22:57:18.500Z,78.20
2022-09-22T23:00:22.242Z,78.30
2022-09-22T23:03:26.907Z,78.31
2022-09-22T23:06:43.191Z,78.24
2022-09-22T23:09:46.329Z,78.26
2022-09-22T23:12:49.478Z,78.33
2022-09-22T23:15:52.373Z,78.26
2022-09-22T23:18:58.350Z,78.26
2022-09-22T23:22:02.872Z,78.29
2022-09-22T23:25:06.014Z,78.29
2022-09-22T23:28:09.072Z,78.34
2022-09-22T23:31:15.069Z,78.34
2022-09-22T23:34:18.074Z,78.44
2022-09-22T23:37:22.519Z,78.48
2022-09-22T23:40:25.404Z,78.49
2022-09-22T23:43:30.054Z,78.54
2022-09-22T23:46:34.037Z,78.62
2022-09-22T23:49:36.914Z,78.59
2022-09-22T23:52:39.745Z,78.65
2022-09-22T23:55:43.143Z,78.75
2022-09-22T23:58:46.567Z,78.83
